createdAt,value
2019-05-09T00:02:03.726Z,11.39
2019-05-09T00:04:34.688Z,11.43
2019-05-09T00:07:05.980Z,11.24
2019-05-09T00:09:34.437Z,11.21
2019-05-09T00:12:05.923Z,11.23
2019-05-09T00:14:35.286Z,11.27
2019-05-09T00:17:03.944Z,11.33
2019-05-09T00:19:33.337Z,11.28
2019-05-09T00:22:03.249Z,11.25
2019-05-09T00:24:33.241Z,11.18
2019-05-09T00:27:03.876Z,11.26
2019-05-09T00:29:37.288Z,11.26
2019-05-09T00:32:10.025Z,11.24
2019-05-09T00:34:40.095Z,11.34
2019-05-09T00:37:09.569Z,11.31
2019-05-09T00:39:37.971Z,11.26
2019-05-09T00:42:07.997Z,11.20
2019-05-09T00:44:53.340Z,11.20
2019-05-09T00:47:23.996Z,11.12
2019-05-09T00:49:55.166Z,11.13
2019-05-09T00:52:23.599Z,11.21
2019-05-09T00:54:57.518Z,11.03
2019-05-09T00:57:34.767Z,11.07
2019-05-09T01:00:14.537Z,11.03
2019-05-09T01:02:43.541Z,11.01
2019-05-09T01:05:13.296Z,11.08
2019-05-09T01:07:43.089Z,11.01
2019-05-09T01:10:13.362Z,11.03
2019-05-09T01:12:43.497Z,11.09
2019-05-09T01:15:13.351Z,11.08
2019-05-09T01:17:44.037Z,10.96
2019-05-09T01:20:14.568Z,10.82
2019-05-09T01:22:43.642Z,10.89
2019-05-09T01:25:13.455Z,10.93
2019-05-09T01:27:43.184Z,10.98
2019-05-09T01:30:13.543Z,10.88
2019-05-09T01:32:49.834Z,10.92
2019-05-09T01:35:18.240Z,10.97
2019-05-09T01:37:46.648Z,10.97
2019-05-09T01:40:17.775Z,10.97
2019-05-09T01:42:45.323Z,11.04
2019-05-09T01:45:14.220Z,11.01
2019-05-09T01:47:43.079Z,10.95
2019-05-09T01:50:14.248Z,10.92
2019-05-09T01:52:43.785Z,10.88
2019-05-09T01:55:23.478Z,10.86
2019-05-09T01:57:54.408Z,10.92
2019-05-09T02:00:23.954Z,10.82
2019-05-09T02:02:54.091Z,10.77
2019-05-09T02:05:24.067Z,10.91
2019-05-09T02:07:55.358Z,10.84
2019-05-09T02:10:23.777Z,10.77
2019-05-09T02:12:53.812Z,10.72
2019-05-09T02:15:43.465Z,10.79
2019-05-09T02:18:16.203Z,10.75
2019-05-09T02:20:44.619Z,10.74
2019-05-09T02:23:13.979Z,10.79
2019-05-09T02:25:43.823Z,10.79
2019-05-09T02:28:14.149Z,10.74
2019-05-09T02:30:45.005Z,10.74
2019-05-09T02:33:14.594Z,10.74
2019-05-09T02:35:55.863Z,10.61
2019-05-09T02:38:14.279Z,10.61
2019-05-09T02:40:43.219Z,10.67
2019-05-09T02:43:11.640Z,10.60
2019-05-09T02:45:49.352Z,10.56
2019-05-09T02:48:15.004Z,10.55
2019-05-09T02:50:43.430Z,10.55
2019-05-09T02:53:18.718Z,10.59
2019-05-09T02:55:49.197Z,10.59
2019-05-09T02:58:21.386Z,10.62
2019-05-09T03:00:51.440Z,10.58
2019-05-09T03:03:21.514Z,10.61
2019-05-09T03:05:59.647Z,10.63
2019-05-09T03:08:31.541Z,10.61
2019-05-09T03:11:00.036Z,10.56
2019-05-09T03:13:29.241Z,10.51
2019-05-09T03:15:59.518Z,10.50
2019-05-09T03:18:28.700Z,10.37
2019-05-09T03:21:08.790Z,10.38
2019-05-09T03:23:34.564Z,10.36
2019-05-09T03:26:09.135Z,10.29
2019-05-09T03:28:38.864Z,10.30
2019-05-09T03:31:11.962Z,10.28
2019-05-09T03:33:42.970Z,10.35
2019-05-09T03:36:13.120Z,10.25
2019-05-09T03:38:41.473Z,10.24
2019-05-09T03:41:09.894Z,10.27
2019-05-09T03:43:42.914Z,10.33
2019-05-09T03:46:28.076Z,10.25
2019-05-09T03:49:04.454Z,10.29
2019-05-09T03:51:33.792Z,10.19
2019-05-09T03:54:02.212Z,10.32
2019-05-09T03:56:43.822Z,10.32
2019-05-09T03:59:12.226Z,10.22
2019-05-09T04:01:40.658Z,10.25
2019-05-09T04:04:12.584Z,10.28
2019-05-09T04:06:41.007Z,10.38
2019-05-09T04:09:09.455Z,10.37
2019-05-09T04:11:38.260Z,10.37
2019-05-09T04:14:11.977Z,10.43
2019-05-09T04:16:40.382Z,10.40
2019-05-09T04:19:17.356Z,10.43
2019-05-09T04:21:45.159Z,10.39
2019-05-09T04:24:13.835Z,10.42
2019-05-09T04:26:44.575Z,10.55
2019-05-09T04:29:18.451Z,10.61
2019-05-09T04:31:50.975Z,10.81
2019-05-09T04:34:19.403Z,10.85
2019-05-09T04:36:48.446Z,11.08
2019-05-09T04:39:23.402Z,11.15
2019-05-09T04:41:48.663Z,11.42
2019-05-09T04:44:38.269Z,11.43
2019-05-09T04:47:08.684Z,11.66
2019-05-09T04:49:40.967Z,11.79
2019-05-09T04:52:07.727Z,11.85
2019-05-09T04:54:38.250Z,12.09
2019-05-09T04:57:07.752Z,12.10
2019-05-09T04:59:37.372Z,12.16
2019-05-09T05:02:42.970Z,12.28
2019-05-09T05:05:12.627Z,12.50
2019-05-09T05:07:41.063Z,13.22
2019-05-09T05:10:09.738Z,13.63
2019-05-09T05:12:38.766Z,14.16
2019-05-09T05:15:09.743Z,14.24
2019-05-09T05:17:38.187Z,14.64
2019-05-09T05:20:11.937Z,15.08
2019-05-09T05:22:42.008Z,15.38
2019-05-09T05:25:10.506Z,15.79
2019-05-09T05:27:41.573Z,16.18
2019-05-09T05:30:14.167Z,16.68
2019-05-09T05:32:44.244Z,16.48
2019-05-09T05:35:34.168Z,17.13
2019-05-09T05:38:08.513Z,16.28
2019-05-09T05:40:43.493Z,16.58
2019-05-09T05:43:08.752Z,16.32
2019-05-09T05:45:38.587Z,16.20
2019-05-09T05:48:10.912Z,16.67
2019-05-09T05:50:39.372Z,16.26
2019-05-09T05:53:08.022Z,15.26
2019-05-09T05:55:37.955Z,15.04
2019-05-09T05:58:08.634Z,14.43
2019-05-09T06:00:37.751Z,14.33
2019-05-09T06:03:08.579Z,14.08
2019-05-09T06:05:38.337Z,13.73
2019-05-09T06:08:08.183Z,13.65
2019-05-09T06:10:40.639Z,13.48
2019-05-09T06:13:11.797Z,13.43
2019-05-09T06:15:42.709Z,13.07
2019-05-09T06:18:13.643Z,13.20
2019-05-09T06:20:45.818Z,12.99
2019-05-09T06:23:17.432Z,12.98
2019-05-09T06:25:48.606Z,13.04
2019-05-09T06:28:19.576Z,12.95
2019-05-09T06:30:47.992Z,12.81
2019-05-09T06:33:18.065Z,12.73
2019-05-09T06:35:52.356Z,12.76
2019-05-09T06:38:20.777Z,12.85
2019-05-09T06:40:49.293Z,12.70
2019-05-09T06:43:29.044Z,12.70
2019-05-09T06:46:29.184Z,12.59
2019-05-09T06:49:24.351Z,12.81
2019-05-09T06:51:42.065Z,12.80
2019-05-09T06:54:10.503Z,12.97
2019-05-09T06:56:38.914Z,13.16
2019-05-09T06:59:07.728Z,13.10
2019-05-09T07:01:37.902Z,13.14
2019-05-09T07:04:24.824Z,13.02
2019-05-09T07:06:54.603Z,13.30
2019-05-09T07:09:33.576Z,13.47
2019-05-09T07:12:02.970Z,13.43
2019-05-09T07:14:37.559Z,13.51
2019-05-09T07:17:03.255Z,13.91
2019-05-09T07:19:31.882Z,14.28
2019-05-09T07:22:02.205Z,15.09
2019-05-09T07:24:31.097Z,15.41
2019-05-09T07:26:59.576Z,16.10
2019-05-09T07:29:29.646Z,16.52
2019-05-09T07:32:14.737Z,17.10
2019-05-09T07:34:44.787Z,16.61
2019-05-09T07:37:13.199Z,16.33
2019-05-09T07:39:41.610Z,16.07
2019-05-09T07:42:13.690Z,16.38
2019-05-09T07:44:49.589Z,16.72
2019-05-09T07:47:17.739Z,17.54
2019-05-09T07:49:48.130Z,17.27
2019-05-09T07:52:18.786Z,17.16
2019-05-09T07:54:48.321Z,16.88
2019-05-09T07:57:28.582Z,17.28
2019-05-09T08:00:03.342Z,18.02
2019-05-09T08:02:32.855Z,17.35
2019-05-09T08:05:01.277Z,16.52
2019-05-09T08:07:29.702Z,16.23
2019-05-09T08:09:58.186Z,16.21
2019-05-09T08:12:28.423Z,15.59
2019-05-09T08:15:10.151Z,15.22
2019-05-09T08:17:28.626Z,14.92
2019-05-09T08:19:58.377Z,14.81
2019-05-09T08:22:31.837Z,14.77
2019-05-09T08:24:57.710Z,15.41
2019-05-09T08:27:30.056Z,15.32
2019-05-09T08:29:58.362Z,15.11
2019-05-09T08:32:28.635Z,15.31
2019-05-09T08:34:57.832Z,15.27
2019-05-09T08:37:28.289Z,15.52
2019-05-09T08:39:57.902Z,15.75
2019-05-09T08:42:26.366Z,16.17
2019-05-09T08:44:54.800Z,16.36
2019-05-09T08:47:23.209Z,16.68
2019-05-09T08:49:53.290Z,16.97
2019-05-09T08:52:22.231Z,17.41
2019-05-09T08:54:59.579Z,17.37
2019-05-09T08:57:28.879Z,17.38
2019-05-09T08:59:59.006Z,17.23
2019-05-09T09:02:30.190Z,17.60
2019-05-09T09:04:58.704Z,17.29
2019-05-09T09:07:29.674Z,16.96
2019-05-09T09:09:57.869Z,16.65
2019-05-09T09:12:33.797Z,16.64
2019-05-09T09:14:58.578Z,16.83
2019-05-09T09:17:29.265Z,16.92
2019-05-09T09:19:58.376Z,16.76
2019-05-09T09:22:28.396Z,16.94
2019-05-09T09:24:58.678Z,16.92
2019-05-09T09:27:27.990Z,17.02
2019-05-09T09:29:58.525Z,16.95
2019-05-09T09:32:28.077Z,16.84
2019-05-09T09:35:00.496Z,17.80
2019-05-09T09:37:44.976Z,17.80
2019-05-09T09:40:01.834Z,18.17
2019-05-09T09:42:30.311Z,18.28
2019-05-09T09:44:58.813Z,18.31
2019-05-09T09:47:31.017Z,18.31
2019-05-09T09:50:00.543Z,17.81
2019-05-09T09:52:34.137Z,18.12
2019-05-09T09:54:59.196Z,18.32
2019-05-09T09:57:28.847Z,18.04
2019-05-09T10:00:14.373Z,17.73
2019-05-09T10:02:42.837Z,17.77
2019-05-09T10:05:14.986Z,17.95
2019-05-09T10:07:44.655Z,18.11
2019-05-09T10:10:18.443Z,18.49
2019-05-09T10:12:49.346Z,18.60
2019-05-09T10:15:22.160Z,18.86
2019-05-09T10:18:01.024Z,19.09
2019-05-09T10:20:39.605Z,19.09
2019-05-09T10:23:18.286Z,19.12
2019-05-09T10:25:43.873Z,18.81
2019-05-09T10:28:12.299Z,18.45
2019-05-09T10:30:43.359Z,18.15
2019-05-09T10:33:18.565Z,18.02
2019-05-09T10:35:47.925Z,17.62
2019-05-09T10:38:20.295Z,18.01
2019-05-09T10:40:48.579Z,18.10
2019-05-09T10:43:37.612Z,18.22
2019-05-09T10:46:19.273Z,17.81
2019-05-09T10:48:48.690Z,17.45
2019-05-09T10:51:18.550Z,17.24
2019-05-09T10:53:48.123Z,17.36
2019-05-09T10:56:18.827Z,17.66
2019-05-09T10:58:48.188Z,18.25
2019-05-09T11:01:18.557Z,18.56
2019-05-09T11:03:48.241Z,18.27
2019-05-09T11:06:18.394Z,18.13
2019-05-09T11:08:47.818Z,18.57
2019-05-09T11:11:18.182Z,18.51
2019-05-09T11:13:48.172Z,18.53
2019-05-09T11:16:18.682Z,18.59
2019-05-09T11:18:48.641Z,18.27
2019-05-09T11:21:28.609Z,18.19
2019-05-09T11:24:01.354Z,18.41
2019-05-09T11:26:33.644Z,18.54
2019-05-09T11:29:02.046Z,18.84
2019-05-09T11:31:30.462Z,18.42
2019-05-09T11:34:05.214Z,18.13
2019-05-09T11:36:33.593Z,18.32
2019-05-09T11:39:02.259Z,18.64
2019-05-09T11:44:30.878Z,18.69
2019-05-09T11:47:01.687Z,18.41
2019-05-09T11:49:39.115Z,18.23
2019-05-09T11:52:08.401Z,17.60
2019-05-09T11:54:38.829Z,17.22
2019-05-09T11:57:07.647Z,17.07
2019-05-09T11:59:37.954Z,17.09
2019-05-09T12:02:08.848Z,17.55
2019-05-09T12:04:37.995Z,18.05
2019-05-09T12:07:07.919Z,18.42
2019-05-09T12:09:38.508Z,18.59
2019-05-09T12:12:06.591Z,19.25
2019-05-09T12:14:35.003Z,19.76
2019-05-09T12:17:08.324Z,19.89
2019-05-09T12:19:38.065Z,19.68
2019-05-09T12:22:10.413Z,19.60
2019-05-09T12:24:38.867Z,19.64
2019-05-09T12:27:08.852Z,19.37
2019-05-09T12:29:38.712Z,19.27
2019-05-09T12:32:11.090Z,18.99
2019-05-09T12:34:39.499Z,18.71
2019-05-09T12:37:09.516Z,18.85
2019-05-09T12:39:38.685Z,18.70
2019-05-09T12:42:08.850Z,18.70
2019-05-09T12:44:37.325Z,18.80
2019-05-09T12:47:05.768Z,19.36
2019-05-09T12:49:34.219Z,19.81
2019-05-09T12:52:10.389Z,19.84
2019-05-09T12:54:38.856Z,19.78
2019-05-09T12:57:08.113Z,19.89
2019-05-09T12:59:48.584Z,19.94
2019-05-09T13:02:09.458Z,20.27
2019-05-09T13:04:47.728Z,19.86
2019-05-09T13:07:11.827Z,19.89
2019-05-09T13:09:41.048Z,19.34
2019-05-09T13:12:10.479Z,19.11
2019-05-09T13:14:38.909Z,18.86
2019-05-09T13:17:14.578Z,18.79
2019-05-09T13:19:48.165Z,18.67
2019-05-09T13:22:18.554Z,18.77
2019-05-09T13:24:47.550Z,19.03
2019-05-09T13:27:18.972Z,18.89
2019-05-09T13:29:52.657Z,19.19
2019-05-09T13:32:28.013Z,19.54
2019-05-09T13:35:09.956Z,19.78
2019-05-09T13:37:44.732Z,19.78
2019-05-09T13:40:18.576Z,16.48
2019-05-09T13:42:48.744Z,19.74
2019-05-09T13:45:23.782Z,19.96
2019-05-09T13:47:52.239Z,20.39
2019-05-09T13:50:23.174Z,20.58
2019-05-09T13:52:55.591Z,20.39
2019-05-09T13:55:24.065Z,20.20
2019-05-09T13:57:57.566Z,20.01
2019-05-09T14:00:28.460Z,19.75
2019-05-09T14:02:56.497Z,19.17
2019-05-09T14:05:29.155Z,19.23
2019-05-09T14:08:04.371Z,19.17
2019-05-09T14:10:33.971Z,19.32
2019-05-09T14:13:09.772Z,19.29
2019-05-09T14:15:32.510Z,19.48
2019-05-09T14:18:00.927Z,19.86
2019-05-09T14:20:29.315Z,20.26
2019-05-09T14:23:01.347Z,20.21
2019-05-09T14:25:29.779Z,20.01
2019-05-09T14:27:58.176Z,20.11
2019-05-09T14:30:29.310Z,20.10
2019-05-09T14:33:04.565Z,20.27
2019-05-09T14:35:34.433Z,20.52
2019-05-09T14:38:03.057Z,20.25
2019-05-09T14:40:31.537Z,20.32
2019-05-09T14:43:04.068Z,20.34
2019-05-09T14:45:30.091Z,20.14
2019-05-09T14:47:58.839Z,20.18
2019-05-09T14:50:28.502Z,19.96
2019-05-09T14:52:58.425Z,19.80
2019-05-09T14:55:30.887Z,19.61
2019-05-09T14:57:59.295Z,19.51
2019-05-09T15:00:27.802Z,19.21
2019-05-09T15:02:58.128Z,19.47
2019-05-09T15:05:27.891Z,19.27
2019-05-09T15:07:59.245Z,19.44
2019-05-09T15:10:27.710Z,19.42
2019-05-09T15:12:58.385Z,19.39
2019-05-09T15:15:32.044Z,19.37
2019-05-09T15:17:58.430Z,19.71
2019-05-09T15:20:28.078Z,19.74
2019-05-09T15:22:58.664Z,19.79
2019-05-09T15:25:28.131Z,19.77
2019-05-09T15:27:58.016Z,19.48
2019-05-09T15:30:28.719Z,19.46
2019-05-09T15:32:58.546Z,19.40
2019-05-09T15:35:28.133Z,19.32
2019-05-09T15:37:59.006Z,19.25
2019-05-09T15:40:28.170Z,19.45
2019-05-09T15:42:58.894Z,19.21
2019-05-09T15:45:28.635Z,19.16
2019-05-09T15:47:58.315Z,19.07
2019-05-09T15:50:29.411Z,18.84
2019-05-09T15:53:00.555Z,18.43
2019-05-09T15:55:30.819Z,18.72
2019-05-09T15:58:01.389Z,18.47
2019-05-09T16:00:33.600Z,18.12
2019-05-09T16:03:02.024Z,17.78
2019-05-09T16:05:35.000Z,17.79
2019-05-09T16:08:03.396Z,17.66
2019-05-09T16:10:31.829Z,17.47
2019-05-09T16:13:00.248Z,17.37
2019-05-09T16:15:32.418Z,17.34
2019-05-09T16:18:00.818Z,17.28
2019-05-09T16:20:41.050Z,17.30
2019-05-09T16:23:08.489Z,16.80
2019-05-09T16:25:40.550Z,16.40
2019-05-09T16:28:08.997Z,16.63
2019-05-09T16:30:39.948Z,16.64
2019-05-09T16:33:08.243Z,16.78
2019-05-09T16:35:39.623Z,16.48
2019-05-09T16:38:10.840Z,16.39
2019-05-09T16:40:38.740Z,16.36
2019-05-09T16:43:09.077Z,16.34
2019-05-09T16:45:38.038Z,16.12
2019-05-09T16:48:11.408Z,16.36
2019-05-09T16:50:41.894Z,16.32
2019-05-09T16:53:09.006Z,16.18
2019-05-09T16:55:39.441Z,16.25
2019-05-09T16:58:08.691Z,16.07
2019-05-09T17:00:47.664Z,16.08
2019-05-09T17:03:19.057Z,16.06
2019-05-09T17:05:50.089Z,15.95
2019-05-09T17:08:18.514Z,16.05
2019-05-09T17:10:49.691Z,15.79
2019-05-09T17:13:18.646Z,15.90
2019-05-09T17:15:48.407Z,15.99
2019-05-09T17:18:18.946Z,15.82
2019-05-09T17:20:48.612Z,16.21
2019-05-09T17:23:22.094Z,16.29
2019-05-09T17:25:57.952Z,16.43
2019-05-09T17:28:28.483Z,16.46
2019-05-09T17:30:57.922Z,16.53
2019-05-09T17:33:28.774Z,16.54
2019-05-09T17:35:57.748Z,16.40
2019-05-09T17:38:27.909Z,16.41
2019-05-09T17:40:57.690Z,16.55
2019-05-09T17:43:27.890Z,16.48
2019-05-09T17:45:58.392Z,16.46
2019-05-09T17:48:28.514Z,16.63
2019-05-09T17:50:59.832Z,16.52
2019-05-09T17:53:33.193Z,16.59
2019-05-09T17:55:59.571Z,16.55
2019-05-09T17:58:33.408Z,16.51
2019-05-09T18:01:01.982Z,16.33
2019-05-09T18:03:32.757Z,16.31
2019-05-09T18:06:09.605Z,16.21
2019-05-09T18:08:38.009Z,16.12
2019-05-09T18:11:09.195Z,16.14
2019-05-09T18:13:38.591Z,16.05
2019-05-09T18:16:06.955Z,16.03
2019-05-09T18:18:35.588Z,16.07
2019-05-09T18:21:05.370Z,15.90
2019-05-09T18:23:33.852Z,15.90
2019-05-09T18:26:03.866Z,15.80
2019-05-09T18:28:32.328Z,15.63
2019-05-09T18:31:00.789Z,15.56
2019-05-09T18:33:30.829Z,15.45
2019-05-09T18:35:59.246Z,15.27
2019-05-09T18:38:33.237Z,15.27
2019-05-09T18:41:02.201Z,15.14
2019-05-09T18:43:31.351Z,14.93
2019-05-09T18:46:08.394Z,14.72
2019-05-09T18:48:41.892Z,14.72
2019-05-09T18:51:10.761Z,14.61
2019-05-09T18:53:44.378Z,14.49
2019-05-09T18:56:12.788Z,14.39
2019-05-09T18:58:42.156Z,14.31
2019-05-09T19:01:14.283Z,14.08
2019-05-09T19:03:42.692Z,14.00
2019-05-09T19:06:12.852Z,13.73
2019-05-09T19:08:42.474Z,13.73
2019-05-09T19:11:11.092Z,13.69
2019-05-09T19:13:43.358Z,13.66
2019-05-09T19:16:22.425Z,13.56
2019-05-09T19:18:54.105Z,13.58
2019-05-09T19:21:24.165Z,13.56
2019-05-09T19:23:54.498Z,13.51
2019-05-09T19:26:37.919Z,13.40
2019-05-09T19:29:08.479Z,13.47
2019-05-09T19:31:37.464Z,13.45
2019-05-09T19:34:06.999Z,13.50
2019-05-09T19:36:35.645Z,13.53
2019-05-09T19:39:13.194Z,13.48
2019-05-09T19:41:48.410Z,13.48
2019-05-09T19:44:20.512Z,13.42
2019-05-09T19:46:49.808Z,13.48
2019-05-09T19:49:22.026Z,13.52
2019-05-09T19:51:52.545Z,13.56
2019-05-09T19:54:21.932Z,12.81
2019-05-09T19:56:52.853Z,13.41
2019-05-09T19:59:24.612Z,13.38
2019-05-09T20:01:53.032Z,13.36
2019-05-09T20:04:21.459Z,13.23
2019-05-09T20:06:49.871Z,13.23
2019-05-09T20:09:22.610Z,13.40
2019-05-09T20:11:57.625Z,13.50
2019-05-09T20:14:30.382Z,13.50
2019-05-09T20:16:58.927Z,13.50
2019-05-09T20:19:27.368Z,13.49
2019-05-09T20:21:55.792Z,13.50
2019-05-09T20:24:25.317Z,13.52
2019-05-09T20:27:00.135Z,13.47
2019-05-09T20:29:32.210Z,13.39
2019-05-09T20:32:00.633Z,13.30
2019-05-09T20:34:29.038Z,13.29
2019-05-09T20:37:01.119Z,13.24
2019-05-09T20:39:31.011Z,13.25
2019-05-09T20:42:03.252Z,13.05
2019-05-09T20:44:54.993Z,13.10
2019-05-09T20:47:29.676Z,13.13
2019-05-09T20:50:09.797Z,13.10
2019-05-09T20:53:08.474Z,12.93
2019-05-09T20:55:41.223Z,12.94
2019-05-09T20:58:10.864Z,12.94
2019-05-09T21:00:41.961Z,12.73
2019-05-09T21:03:14.288Z,12.63
2019-05-09T21:05:45.359Z,12.53
2019-05-09T21:08:18.984Z,12.40
2019-05-09T21:10:53.814Z,12.30
2019-05-09T21:13:22.368Z,12.30
2019-05-09T21:15:53.478Z,12.26
2019-05-09T21:18:26.313Z,12.08
2019-05-09T21:21:08.089Z,11.82
2019-05-09T21:23:39.660Z,11.83
2019-05-09T21:26:07.110Z,11.68
2019-05-09T21:28:35.760Z,11.63
2019-05-09T21:31:07.377Z,11.61
2019-05-09T21:33:39.726Z,11.55
2019-05-09T21:36:14.466Z,11.50
2019-05-09T21:38:46.721Z,11.36
2019-05-09T21:41:14.642Z,11.34
2019-05-09T21:43:44.125Z,11.47
2019-05-09T21:46:13.753Z,11.43
2019-05-09T21:48:42.642Z,11.24
2019-05-09T21:51:23.731Z,11.23
2019-05-09T21:53:52.231Z,11.27
2019-05-09T21:56:21.131Z,11.21
2019-05-09T21:58:49.653Z,11.01
2019-05-09T22:01:23.728Z,11.13
2019-05-09T22:03:52.579Z,11.12
2019-05-09T22:06:21.294Z,11.08
2019-05-09T22:08:49.847Z,11.08
2019-05-09T22:11:18.459Z,11.12
2019-05-09T22:13:53.287Z,11.12
2019-05-09T22:16:22.245Z,11.01
2019-05-09T22:18:55.024Z,11.03
2019-05-09T22:21:23.824Z,11.00
2019-05-09T22:23:56.575Z,11.00
2019-05-09T22:26:26.639Z,10.96
2019-05-09T22:28:55.215Z,10.93
2019-05-09T22:31:26.773Z,10.83
2019-05-09T22:33:56.868Z,10.84
2019-05-09T22:36:25.418Z,10.86
2019-05-09T22:38:54.002Z,10.93
2019-05-09T22:41:24.026Z,11.01
2019-05-09T22:43:52.836Z,11.06
2019-05-09T22:46:27.508Z,11.01
2019-05-09T22:48:56.112Z,11.00
2019-05-09T22:51:24.679Z,11.02
2019-05-09T22:53:53.219Z,11.00
2019-05-09T22:56:22.722Z,10.96
2019-05-09T22:58:52.336Z,10.89
2019-05-09T23:01:20.911Z,10.91
2019-05-09T23:03:52.184Z,10.85
2019-05-09T23:06:28.489Z,10.80
2019-05-09T23:08:55.780Z,10.80
2019-05-09T23:11:26.988Z,10.80
2019-05-09T23:13:56.026Z,10.77
2019-05-09T23:16:27.493Z,10.74
2019-05-09T23:18:56.131Z,9.61
2019-05-09T23:21:27.470Z,10.77
2019-05-09T23:24:00.708Z,10.73
2019-05-09T23:26:29.459Z,10.80
2019-05-09T23:29:02.004Z,10.75
2019-05-09T23:31:32.399Z,10.83
2019-05-09T23:34:00.965Z,10.87
2019-05-09T23:36:31.599Z,10.82
2019-05-09T23:39:21.455Z,10.82
2019-05-09T23:41:53.459Z,10.47
2019-05-09T23:44:28.409Z,10.75
2019-05-09T23:46:57.211Z,10.82
2019-05-09T23:49:32.374Z,10.81
2019-05-09T23:52:03.218Z,10.81
2019-05-09T23:54:53.914Z,10.77
2019-05-09T23:57:39.619Z,10.70
